sensor_id;sensor_type;location;lat;lon;timestamp;pressure;altitude;pressure_sealevel;temperature;humidity
51083;BME280;37131;42.694;23.350;2022-11-18T00:00:25;94481.00;;;7.69;100.00
51083;BME280;37131;42.694;23.350;2022-11-18T00:02:50;94486.16;;;7.58;100.00
51083;BME280;37131;42.694;23.350;2022-11-18T00:05:16;94479.03;;;7.29;100.00
51083;BME280;37131;42.694;23.350;2022-11-18T00:07:41;94480.94;;;7.03;100.00
51083;BME280;37131;42.694;23.350;2022-11-18T00:10:07;94484.13;;;7.17;100.00
51083;BME280;37131;42.694;23.350;2022-11-18T00:12:32;94489.06;;;6.95;100.00
51083;BME280;37131;42.694;23.350;2022-11-18T00:15:16;94485.69;;;7.07;100.00
51083;BME280;37131;42.694;23.350;2022-11-18T00:17:41;94490.91;;;7.18;100.00
51083;BME280;37131;42.694;23.350;2022-11-18T00:20:07;94487.75;;;7.16;100.00
51083;BME280;37131;42.694;23.350;2022-11-18T00:22:32;94483.94;;;7.19;100.00
51083;BME280;37131;42.694;23.350;2022-11-18T00:24:58;94474.47;;;7.25;100.00
51083;BME280;37131;42.694;23.350;2022-11-18T00:27:23;94490.38;;;7.28;100.00
51083;BME280;37131;42.694;23.350;2022-11-18T00:29:48;94481.81;;;7.40;100.00
51083;BME280;37131;42.694;23.350;2022-11-18T00:32:14;94486.91;;;7.04;100.00
51083;BME280;37131;42.694;23.350;2022-11-18T00:34:39;94487.16;;;6.72;100.00
51083;BME280;37131;42.694;23.350;2022-11-18T00:37:06;94471.66;;;6.84;100.00
51083;BME280;37131;42.694;23.350;2022-11-18T00:39:32;94492.50;;;6.89;100.00
51083;BME280;37131;42.694;23.350;2022-11-18T00:41:57;94481.81;;;6.67;100.00
51083;BME280;37131;42.694;23.350;2022-11-18T00:44:41;94483.56;;;6.73;100.00
51083;BME280;37131;42.694;23.350;2022-11-18T00:47:07;94475.84;;;6.85;100.00
51083;BME280;37131;42.694;23.350;2022-11-18T00:49:32;94488.94;;;7.02;100.00
51083;BME280;37131;42.694;23.350;2022-11-18T00:51:57;94474.13;;;6.60;100.00
51083;BME280;37131;42.694;23.350;2022-11-18T00:54:23;94484.00;;;6.33;100.00
51083;BME280;37131;42.694;23.350;2022-11-18T00:56:48;94479.81;;;6.13;100.00
51083;BME280;37131;42.694;23.350;2022-11-18T00:59:13;94486.38;;;6.16;100.00
51083;BME280;37131;42.694;23.350;2022-11-18T01:01:39;94476.59;;;5.93;100.00
51083;BME280;37131;42.694;23.350;2022-11-18T01:04:05;94481.41;;;6.33;100.00
51083;BME280;37131;42.694;23.350;2022-11-18T01:06:30;94485.53;;;6.41;100.00
51083;BME280;37131;42.694;23.350;2022-11-18T01:08:56;94465.50;;;6.11;100.00
51083;BME280;37131;42.694;23.350;2022-11-18T01:11:21;94483.41;;;6.12;100.00
51083;BME280;37131;42.694;23.350;2022-11-18T01:14:05;94476.06;;;6.09;100.00
51083;BME280;37131;42.694;23.350;2022-11-18T01:16:30;94489.44;;;6.06;100.00
51083;BME280;37131;42.694;23.350;2022-11-18T01:18:56;94493.63;;;6.07;100.00
51083;BME280;37131;42.694;23.350;2022-11-18T01:21:22;94485.34;;;5.92;100.00
51083;BME280;37131;42.694;23.350;2022-11-18T01:23:47;94487.47;;;5.83;100.00
51083;BME280;37131;42.694;23.350;2022-11-18T01:26:14;94489.31;;;5.94;100.00
51083;BME280;37131;42.694;23.350;2022-11-18T01:28:40;94494.09;;;5.72;100.00
51083;BME280;37131;42.694;23.350;2022-11-18T01:31:14;94479.69;;;5.58;100.00
51083;BME280;37131;42.694;23.350;2022-11-18T01:33:41;94491.16;;;5.69;100.00
51083;BME280;37131;42.694;23.350;2022-11-18T01:36:18;94497.16;;;5.88;100.00
51083;BME280;37131;42.694;23.350;2022-11-18T01:38:44;94497.63;;;5.78;100.00
51083;BME280;37131;42.694;23.350;2022-11-18T01:41:10;94490.22;;;5.82;100.00
51083;BME280;37131;42.694;23.350;2022-11-18T01:43:57;94488.81;;;5.86;100.00
51083;BME280;37131;42.694;23.350;2022-11-18T01:46:24;94484.56;;;5.91;100.00
51083;BME280;37131;42.694;23.350;2022-11-18T01:49:11;94483.78;;;5.91;100.00
51083;BME280;37131;42.694;23.350;2022-11-18T01:51:46;94486.06;;;5.80;100.00
51083;BME280;37131;42.694;23.350;2022-11-18T01:54:19;94491.81;;;6.08;100.00
51083;BME280;37131;42.694;23.350;2022-11-18T01:56:50;94432.41;;;5.94;100.00
51083;BME280;37131;42.694;23.350;2022-11-18T01:59:18;94468.59;;;6.01;100.00
51083;BME280;37131;42.694;23.350;2022-11-18T02:01:45;94485.38;;;6.36;100.00
51083;BME280;37131;42.694;23.350;2022-11-18T02:04:11;94471.78;;;6.22;100.00
51083;BME280;37131;42.694;23.350;2022-11-18T02:06:38;94481.78;;;6.37;100.00
51083;BME280;37131;42.694;23.350;2022-11-18T02:09:03;94484.94;;;6.57;100.00
51083;BME280;37131;42.694;23.350;2022-11-18T02:11:29;94490.03;;;6.45;100.00
51083;BME280;37131;42.694;23.350;2022-11-18T02:14:14;94487.69;;;6.44;100.00
51083;BME280;37131;42.694;23.350;2022-11-18T02:30:47;94481.63;;;6.50;100.00
51083;BME280;37131;42.694;23.350;2022-11-18T02:33:23;94479.03;;;6.50;100.00
51083;BME280;37131;42.694;23.350;2022-11-18T02:36:01;94480.81;;;6.49;100.00
51083;BME280;37131;42.694;23.350;2022-11-18T02:38:33;94479.25;;;6.30;100.00
51083;BME280;37131;42.694;23.350;2022-11-18T02:41:05;94478.47;;;6.29;100.00
51083;BME280;37131;42.694;23.350;2022-11-18T02:43:37;94475.16;;;6.41;100.00
51083;BME280;37131;42.694;23.350;2022-11-18T02:46:10;94466.53;;;6.47;100.00
51083;BME280;37131;42.694;23.350;2022-11-18T02:48:45;94477.00;;;6.71;100.00
51083;BME280;37131;42.694;23.350;2022-11-18T02:51:12;94475.22;;;6.53;100.00
51083;BME280;37131;42.694;23.350;2022-11-18T02:53:42;94461.56;;;6.45;100.00
51083;BME280;37131;42.694;23.350;2022-11-18T02:56:10;94471.25;;;6.31;100.00
51083;BME280;37131;42.694;23.350;2022-11-18T02:58:37;94473.63;;;6.52;100.00
51083;BME280;37131;42.694;23.350;2022-11-18T03:01:02;94462.75;;;6.61;100.00
51083;BME280;37131;42.694;23.350;2022-11-18T03:03:33;94482.06;;;6.10;100.00
51083;BME280;37131;42.694;23.350;2022-11-18T03:08:53;94479.94;;;5.75;100.00
51083;BME280;37131;42.694;23.350;2022-11-18T03:11:27;94491.69;;;5.96;100.00
51083;BME280;37131;42.694;23.350;2022-11-18T03:14:01;94442.38;;;5.72;100.00
51083;BME280;37131;42.694;23.350;2022-11-18T03:17:20;94498.19;;;5.80;100.00
51083;BME280;37131;42.694;23.350;2022-11-18T03:22:16;94486.94;;;5.93;100.00
51083;BME280;37131;42.694;23.350;2022-11-18T03:24:48;94487.97;;;6.17;100.00
51083;BME280;37131;42.694;23.350;2022-11-18T03:27:33;94468.66;;;6.31;100.00
51083;BME280;37131;42.694;23.350;2022-11-18T03:30:05;94475.00;;;6.36;100.00
51083;BME280;37131;42.694;23.350;2022-11-18T03:32:36;94470.69;;;6.48;100.00
51083;BME280;37131;42.694;23.350;2022-11-18T03:35:06;94467.66;;;6.14;100.00
51083;BME280;37131;42.694;23.350;2022-11-18T03:37:34;94452.72;;;6.16;100.00
51083;BME280;37131;42.694;23.350;2022-11-18T03:40:25;94450.94;;;5.91;100.00
51083;BME280;37131;42.694;23.350;2022-11-18T03:42:55;94475.84;;;6.11;100.00
51083;BME280;37131;42.694;23.350;2022-11-18T03:45:35;94472.22;;;5.93;100.00
51083;BME280;37131;42.694;23.350;2022-11-18T03:48:27;94469.44;;;5.95;100.00
51083;BME280;37131;42.694;23.350;2022-11-18T03:50:59;94466.69;;;5.90;100.00
51083;BME280;37131;42.694;23.350;2022-11-18T03:53:30;94445.66;;;6.05;100.00
51083;BME280;37131;42.694;23.350;2022-11-18T03:56:07;94450.00;;;6.29;100.00
51083;BME280;37131;42.694;23.350;2022-11-18T03:58:51;94403.38;;;5.92;100.00
51083;BME280;37131;42.694;23.350;2022-11-18T04:01:28;94454.00;;;6.44;100.00
51083;BME280;37131;42.694;23.350;2022-11-18T04:03:57;94464.44;;;6.00;100.00
51083;BME280;37131;42.694;23.350;2022-11-18T04:09:21;94458.75;;;6.10;100.00
51083;BME280;37131;42.694;23.350;2022-11-18T04:11:53;94454.78;;;6.26;100.00
51083;BME280;37131;42.694;23.350;2022-11-18T04:16:58;94466.53;;;6.10;100.00
51083;BME280;37131;42.694;23.350;2022-11-18T04:19:23;94461.63;;;6.02;100.00
51083;BME280;37131;42.694;23.350;2022-11-18T04:21:49;94471.53;;;6.05;100.00
51083;BME280;37131;42.694;23.350;2022-11-18T04:24:15;94463.47;;;5.69;100.00
51083;BME280;37131;42.694;23.350;2022-11-18T04:26:42;94473.22;;;5.92;100.00
51083;BME280;37131;42.694;23.350;2022-11-18T04:29:07;94487.28;;;5.78;100.00
51083;BME280;37131;42.694;23.350;2022-11-18T04:31:33;94475.84;;;5.67;100.00
51083;BME280;37131;42.694;23.350;2022-11-18T04:33:58;94476.16;;;5.77;100.00
51083;BME280;37131;42.694;23.350;2022-11-18T04:36:23;94427.06;;;5.71;100.00
51083;BME280;37131;42.694;23.350;2022-11-18T04:38:49;94487.81;;;5.61;100.00
51083;BME280;37131;42.694;23.350;2022-11-18T04:41:14;94478.44;;;5.67;100.00
51083;BME280;37131;42.694;23.350;2022-11-18T04:43:40;94505.06;;;5.68;100.00
51083;BME280;37131;42.694;23.350;2022-11-18T04:46:06;94482.75;;;5.99;100.00
51083;BME280;37131;42.694;23.350;2022-11-18T04:48:31;94491.09;;;5.50;100.00
51083;BME280;37131;42.694;23.350;2022-11-18T04:50:57;94502.31;;;5.37;100.00
51083;BME280;37131;42.694;23.350;2022-11-18T04:53:22;94496.75;;;5.40;100.00
51083;BME280;37131;42.694;23.350;2022-11-18T04:55:47;94493.94;;;5.67;100.00
51083;BME280;37131;42.694;23.350;2022-11-18T04:58:13;94482.75;;;5.73;100.00
51083;BME280;37131;42.694;23.350;2022-11-18T05:00:38;94494.94;;;5.91;100.00
51083;BME280;37131;42.694;23.350;2022-11-18T05:03:04;94480.63;;;5.89;100.00
51083;BME280;37131;42.694;23.350;2022-11-18T05:05:29;94481.09;;;6.23;100.00
51083;BME280;37131;42.694;23.350;2022-11-18T05:07:54;94491.03;;;5.82;100.00
51083;BME280;37131;42.694;23.350;2022-11-18T05:10:20;94483.38;;;5.94;100.00
51083;BME280;37131;42.694;23.350;2022-11-18T05:12:45;94475.72;;;5.80;100.00
51083;BME280;37131;42.694;23.350;2022-11-18T05:15:20;94468.41;;;5.77;100.00
51083;BME280;37131;42.694;23.350;2022-11-18T05:17:48;94472.28;;;5.87;100.00
51083;BME280;37131;42.694;23.350;2022-11-18T05:20:13;94488.44;;;6.07;100.00
51083;BME280;37131;42.694;23.350;2022-11-18T05:22:39;94486.28;;;6.23;100.00
51083;BME280;37131;42.694;23.350;2022-11-18T05:25:05;94490.44;;;6.05;100.00
51083;BME280;37131;42.694;23.350;2022-11-18T05:27:31;94489.03;;;6.28;100.00
51083;BME280;37131;42.694;23.350;2022-11-18T05:29:56;94508.31;;;6.32;100.00
51083;BME280;37131;42.694;23.350;2022-11-18T05:32:22;94479.75;;;6.20;100.00
51083;BME280;37131;42.694;23.350;2022-11-18T05:34:47;94506.84;;;6.36;100.00
51083;BME280;37131;42.694;23.350;2022-11-18T05:37:13;94486.50;;;6.58;100.00
51083;BME280;37131;42.694;23.350;2022-11-18T05:39:38;94494.78;;;6.48;100.00
51083;BME280;37131;42.694;23.350;2022-11-18T05:42:04;94494.09;;;6.72;100.00
51083;BME280;37131;42.694;23.350;2022-11-18T05:44:48;94488.88;;;6.41;100.00
51083;BME280;37131;42.694;23.350;2022-11-18T05:47:16;94492.84;;;6.44;100.00
51083;BME280;37131;42.694;23.350;2022-11-18T05:49:41;94491.03;;;6.44;100.00
51083;BME280;37131;42.694;23.350;2022-11-18T05:52:07;94487.22;;;6.28;100.00
51083;BME280;37131;42.694;23.350;2022-11-18T05:54:32;94499.16;;;6.48;100.00
51083;BME280;37131;42.694;23.350;2022-11-18T05:56:58;94497.25;;;6.25;100.00
51083;BME280;37131;42.694;23.350;2022-11-18T05:59:23;94491.53;;;6.16;100.00
51083;BME280;37131;42.694;23.350;2022-11-18T06:01:55;94491.16;;;6.49;100.00
51083;BME280;37131;42.694;23.350;2022-11-18T06:04:34;94485.59;;;6.34;100.00
51083;BME280;37131;42.694;23.350;2022-11-18T06:07:18;94475.66;;;6.31;100.00
51083;BME280;37131;42.694;23.350;2022-11-18T06:09:47;94493.41;;;6.46;100.00
51083;BME280;37131;42.694;23.350;2022-11-18T06:12:20;94485.59;;;6.34;100.00
51083;BME280;37131;42.694;23.350;2022-11-18T06:15:26;94493.56;;;6.32;100.00
51083;BME280;37131;42.694;23.350;2022-11-18T06:20:21;94497.25;;;6.25;100.00
51083;BME280;37131;42.694;23.350;2022-11-18T06:22:52;94495.16;;;6.34;100.00
51083;BME280;37131;42.694;23.350;2022-11-18T06:25:19;94490.69;;;6.59;100.00
51083;BME280;37131;42.694;23.350;2022-11-18T06:27:45;94486.00;;;6.68;100.00
51083;BME280;37131;42.694;23.350;2022-11-18T06:30:13;94488.47;;;6.63;100.00
51083;BME280;37131;42.694;23.350;2022-11-18T06:32:38;94480.38;;;6.15;100.00
51083;BME280;37131;42.694;23.350;2022-11-18T06:35:04;94484.56;;;6.17;100.00
51083;BME280;37131;42.694;23.350;2022-11-18T06:37:29;94477.97;;;6.39;100.00
51083;BME280;37131;42.694;23.350;2022-11-18T06:39:55;94485.81;;;6.32;100.00
51083;BME280;37131;42.694;23.350;2022-11-18T06:42:20;94392.19;;;5.55;100.00
51083;BME280;37131;42.694;23.350;2022-11-18T06:45:04;94479.56;;;6.22;100.00
51083;BME280;37131;42.694;23.350;2022-11-18T06:47:30;94478.66;;;6.65;100.00
51083;BME280;37131;42.694;23.350;2022-11-18T06:49:55;94478.16;;;6.56;100.00
51083;BME280;37131;42.694;23.350;2022-11-18T06:52:21;94484.19;;;6.68;100.00
51083;BME280;37131;42.694;23.350;2022-11-18T06:54:47;94484.47;;;6.79;100.00
51083;BME280;37131;42.694;23.350;2022-11-18T06:57:13;94481.09;;;6.60;100.00
51083;BME280;37131;42.694;23.350;2022-11-18T06:59:38;94486.75;;;6.87;100.00
51083;BME280;37131;42.694;23.350;2022-11-18T07:02:04;94473.69;;;6.63;100.00
51083;BME280;37131;42.694;23.350;2022-11-18T07:04:29;94486.88;;;6.43;100.00
51083;BME280;37131;42.694;23.350;2022-11-18T07:06:54;94483.84;;;6.46;100.00
51083;BME280;37131;42.694;23.350;2022-11-18T07:09:20;94485.28;;;6.61;100.00
51083;BME280;37131;42.694;23.350;2022-11-18T07:11:45;94491.16;;;6.49;100.00
51083;BME280;37131;42.694;23.350;2022-11-18T07:14:12;94473.38;;;6.72;100.00
51083;BME280;37131;42.694;23.350;2022-11-18T07:16:38;94481.91;;;6.91;100.00
51083;BME280;37131;42.694;23.350;2022-11-18T07:19:08;94468.19;;;6.90;100.00
51083;BME280;37131;42.694;23.350;2022-11-18T07:21:35;94458.06;;;7.00;100.00
51083;BME280;37131;42.694;23.350;2022-11-18T07:24:04;94430.72;;;7.16;100.00
51083;BME280;37131;42.694;23.350;2022-11-18T07:26:30;94456.66;;;7.16;100.00
51083;BME280;37131;42.694;23.350;2022-11-18T07:28:55;94464.47;;;7.40;100.00
51083;BME280;37131;42.694;23.350;2022-11-18T07:31:20;94452.47;;;7.15;100.00
51083;BME280;37131;42.694;23.350;2022-11-18T07:33:46;94454.56;;;7.37;100.00
51083;BME280;37131;42.694;23.350;2022-11-18T07:36:17;94459.88;;;7.66;100.00
51083;BME280;37131;42.694;23.350;2022-11-18T07:38:44;94450.88;;;7.92;100.00
51083;BME280;37131;42.694;23.350;2022-11-18T07:41:14;94449.28;;;7.79;100.00
51083;BME280;37131;42.694;23.350;2022-11-18T07:43:40;94432.25;;;7.83;100.00
51083;BME280;37131;42.694;23.350;2022-11-18T07:48:37;94453.34;;;6.97;100.00
51083;BME280;37131;42.694;23.350;2022-11-18T07:51:02;94448.97;;;7.10;100.00
51083;BME280;37131;42.694;23.350;2022-11-18T07:53:32;94443.63;;;6.93;100.00
51083;BME280;37131;42.694;23.350;2022-11-18T07:55:57;94455.56;;;7.36;100.00
51083;BME280;37131;42.694;23.350;2022-11-18T07:58:23;94468.56;;;7.06;100.00
51083;BME280;37131;42.694;23.350;2022-11-18T08:00:48;94458.19;;;7.06;100.00
51083;BME280;37131;42.694;23.350;2022-11-18T08:03:14;94457.94;;;7.49;100.00
51083;BME280;37131;42.694;23.350;2022-11-18T08:05:39;94379.66;;;7.17;100.00
51083;BME280;37131;42.694;23.350;2022-11-18T08:08:05;94481.00;;;7.81;100.00
51083;BME280;37131;42.694;23.350;2022-11-18T08:10:30;94485.75;;;7.84;100.00
51083;BME280;37131;42.694;23.350;2022-11-18T08:12:56;94465.53;;;7.98;100.00
51083;BME280;37131;42.694;23.350;2022-11-18T08:15:22;94502.56;;;8.05;100.00
51083;BME280;37131;42.694;23.350;2022-11-18T08:17:47;94493.38;;;8.38;100.00
51083;BME280;37131;42.694;23.350;2022-11-18T08:20:13;94462.69;;;8.23;100.00
51083;BME280;37131;42.694;23.350;2022-11-18T08:22:38;94456.16;;;8.21;100.00
51083;BME280;37131;42.694;23.350;2022-11-18T08:25:04;94466.97;;;8.30;100.00
51083;BME280;37131;42.694;23.350;2022-11-18T08:27:30;94461.44;;;8.26;100.00
51083;BME280;37131;42.694;23.350;2022-11-18T08:29:56;94463.38;;;7.60;100.00
51083;BME280;37131;42.694;23.350;2022-11-18T08:32:21;94452.44;;;8.17;100.00
51083;BME280;37131;42.694;23.350;2022-11-18T08:34:47;94431.09;;;7.91;100.00
51083;BME280;37131;42.694;23.350;2022-11-18T08:37:12;94444.47;;;8.35;100.00
51083;BME280;37131;42.694;23.350;2022-11-18T08:39:37;94444.19;;;8.72;100.00
51083;BME280;37131;42.694;23.350;2022-11-18T08:42:03;94431.81;;;9.08;100.00
51083;BME280;37131;42.694;23.350;2022-11-18T08:44:28;94423.69;;;8.88;100.00
51083;BME280;37131;42.694;23.350;2022-11-18T08:46:57;94410.03;;;8.81;100.00
51083;BME280;37131;42.694;23.350;2022-11-18T08:49:23;94421.97;;;8.93;100.00
51083;BME280;37131;42.694;23.350;2022-11-18T08:51:48;94410.06;;;8.98;100.00
51083;BME280;37131;42.694;23.350;2022-11-18T08:54:13;94418.19;;;9.18;100.00
51083;BME280;37131;42.694;23.350;2022-11-18T08:56:39;94410.31;;;9.13;100.00
51083;BME280;37131;42.694;23.350;2022-11-18T08:59:05;94378.19;;;8.73;100.00
51083;BME280;37131;42.694;23.350;2022-11-18T09:01:30;94382.44;;;8.80;100.00
51083;BME280;37131;42.694;23.350;2022-11-18T09:03:56;94364.56;;;8.25;100.00
51083;BME280;37131;42.694;23.350;2022-11-18T09:06:22;94369.59;;;8.03;100.00
51083;BME280;37131;42.694;23.350;2022-11-18T09:08:51;94359.94;;;8.28;100.00
51083;BME280;37131;42.694;23.350;2022-11-18T09:11:19;94356.84;;;8.02;100.00
51083;BME280;37131;42.694;23.350;2022-11-18T09:13:45;94359.00;;;8.34;100.00
51083;BME280;37131;42.694;23.350;2022-11-18T09:16:11;94364.78;;;8.65;100.00
51083;BME280;37131;42.694;23.350;2022-11-18T09:18:36;94366.66;;;8.52;100.00
51083;BME280;37131;42.694;23.350;2022-11-18T09:21:05;94363.06;;;8.70;100.00
51083;BME280;37131;42.694;23.350;2022-11-18T09:23:32;94342.44;;;8.81;100.00
51083;BME280;37131;42.694;23.350;2022-11-18T09:26:06;94348.03;;;8.43;100.00
51083;BME280;37131;42.694;23.350;2022-11-18T09:28:31;94366.50;;;8.59;100.00
51083;BME280;37131;42.694;23.350;2022-11-18T09:30:57;94365.13;;;8.68;100.00
51083;BME280;37131;42.694;23.350;2022-11-18T09:33:23;94358.22;;;8.91;100.00
51083;BME280;37131;42.694;23.350;2022-11-18T09:35:49;94345.09;;;8.69;100.00
51083;BME280;37131;42.694;23.350;2022-11-18T09:38:14;94335.47;;;8.52;100.00
51083;BME280;37131;42.694;23.350;2022-11-18T09:43:51;94340.91;;;8.51;100.00
51083;BME280;37131;42.694;23.350;2022-11-18T09:49:01;94310.56;;;8.68;100.00
51083;BME280;37131;42.694;23.350;2022-11-18T09:51:47;94310.31;;;8.70;100.00
51083;BME280;37131;42.694;23.350;2022-11-18T09:54:22;94284.88;;;8.55;100.00
51083;BME280;37131;42.694;23.350;2022-11-18T09:56:50;94288.38;;;8.49;100.00
51083;BME280;37131;42.694;23.350;2022-11-18T09:59:18;94307.41;;;8.83;100.00
51083;BME280;37131;42.694;23.350;2022-11-18T10:01:45;94301.09;;;8.96;100.00
51083;BME280;37131;42.694;23.350;2022-11-18T10:04:13;94289.66;;;8.97;100.00
51083;BME280;37131;42.694;23.350;2022-11-18T10:06:39;94293.78;;;8.76;100.00
51083;BME280;37131;42.694;23.350;2022-11-18T10:09:24;94293.63;;;9.39;100.00
51083;BME280;37131;42.694;23.350;2022-11-18T10:17:26;94292.03;;;9.16;100.00
51083;BME280;37131;42.694;23.350;2022-11-18T10:20:02;94293.75;;;9.66;100.00
51083;BME280;37131;42.694;23.350;2022-11-18T10:25:21;94261.78;;;9.71;100.00
51083;BME280;37131;42.694;23.350;2022-11-18T10:27:48;94258.13;;;9.27;100.00
51083;BME280;37131;42.694;23.350;2022-11-18T10:30:25;94264.63;;;9.69;100.00
51083;BME280;37131;42.694;23.350;2022-11-18T10:38:05;94241.47;;;9.95;100.00
51083;BME280;37131;42.694;23.350;2022-11-18T10:40:45;94230.59;;;10.25;100.00
51083;BME280;37131;42.694;23.350;2022-11-18T10:43:11;94232.13;;;10.81;100.00
51083;BME280;37131;42.694;23.350;2022-11-18T10:45:38;94228.78;;;10.85;100.00
51083;BME280;37131;42.694;23.350;2022-11-18T10:48:16;94231.44;;;11.44;100.00
51083;BME280;37131;42.694;23.350;2022-11-18T10:50:47;94218.25;;;10.75;100.00
51083;BME280;37131;42.694;23.350;2022-11-18T10:58:25;94210.66;;;11.64;100.00
51083;BME280;37131;42.694;23.350;2022-11-18T11:01:04;94209.25;;;12.09;100.00
51083;BME280;37131;42.694;23.350;2022-11-18T11:03:39;94211.09;;;12.40;93.38
51083;BME280;37131;42.694;23.350;2022-11-18T11:09:08;94201.97;;;12.42;93.41
51083;BME280;37131;42.694;23.350;2022-11-18T11:11:36;94214.97;;;12.01;95.81
51083;BME280;37131;42.694;23.350;2022-11-18T11:16:56;94203.25;;;12.50;92.69
51083;BME280;37131;42.694;23.350;2022-11-18T11:19:27;94183.38;;;12.34;93.36
51083;BME280;37131;42.694;23.350;2022-11-18T11:21:55;94199.56;;;12.87;91.41
51083;BME280;37131;42.694;23.350;2022-11-18T11:24:23;94197.97;;;13.12;91.20
51083;BME280;37131;42.694;23.350;2022-11-18T11:30:03;94167.41;;;12.87;92.34
51083;BME280;37131;42.694;23.350;2022-11-18T11:32:40;94175.28;;;12.56;94.24
51083;BME280;37131;42.694;23.350;2022-11-18T11:41:18;94153.81;;;12.85;93.17
51083;BME280;37131;42.694;23.350;2022-11-18T11:55:20;94158.50;;;12.93;92.67
51083;BME280;37131;42.694;23.350;2022-11-18T12:00:18;94155.84;;;13.13;92.59
51083;BME280;37131;42.694;23.350;2022-11-18T12:05:38;94167.53;;;13.42;92.14
51083;BME280;37131;42.694;23.350;2022-11-18T12:08:24;94163.59;;;13.49;89.80
51083;BME280;37131;42.694;23.350;2022-11-18T12:16:52;94166.78;;;13.31;91.91
51083;BME280;37131;42.694;23.350;2022-11-18T12:19:20;94163.59;;;13.49;89.94
51083;BME280;37131;42.694;23.350;2022-11-18T12:27:00;94131.66;;;13.47;88.92
51083;BME280;37131;42.694;23.350;2022-11-18T12:29:39;94115.19;;;13.42;89.13
51083;BME280;37131;42.694;23.350;2022-11-18T12:40:04;94110.81;;;13.77;87.24
51083;BME280;37131;42.694;23.350;2022-11-18T12:42:46;94118.34;;;13.89;87.32
51083;BME280;37131;42.694;23.350;2022-11-18T12:48:25;94101.91;;;14.12;80.44
51083;BME280;37131;42.694;23.350;2022-11-18T12:50:51;94119.03;;;13.99;83.88
51083;BME280;37131;42.694;23.350;2022-11-18T12:53:39;94109.38;;;13.95;86.19
51083;BME280;37131;42.694;23.350;2022-11-18T12:56:30;94097.09;;;13.90;85.73
51083;BME280;37131;42.694;23.350;2022-11-18T12:59:00;94075.94;;;13.81;83.78
51083;BME280;37131;42.694;23.350;2022-11-18T13:01:30;94063.94;;;14.10;83.25
51083;BME280;37131;42.694;23.350;2022-11-18T13:06:37;94091.41;;;14.17;81.94
51083;BME280;37131;42.694;23.350;2022-11-18T13:09:04;94068.50;;;14.28;82.29
51083;BME280;37131;42.694;23.350;2022-11-18T13:11:46;94043.31;;;14.32;78.43
51083;BME280;37131;42.694;23.350;2022-11-18T13:14:37;94036.81;;;14.25;81.57
51083;BME280;37131;42.694;23.350;2022-11-18T13:17:28;94027.84;;;14.31;79.14
51083;BME280;37131;42.694;23.350;2022-11-18T13:26:04;94045.94;;;14.86;64.08
51083;BME280;37131;42.694;23.350;2022-11-18T13:34:29;94016.84;;;15.25;61.00
51083;BME280;37131;42.694;23.350;2022-11-18T13:36:54;94031.31;;;15.42;62.65
51083;BME280;37131;42.694;23.350;2022-11-18T13:39:26;94032.38;;;15.41;64.09
51083;BME280;37131;42.694;23.350;2022-11-18T13:41:58;93991.16;;;14.79;66.44
51083;BME280;37131;42.694;23.350;2022-11-18T13:44:26;94020.78;;;15.04;66.50
51083;BME280;37131;42.694;23.350;2022-11-18T13:52:41;94020.63;;;14.47;74.24
51083;BME280;37131;42.694;23.350;2022-11-18T13:55:15;94028.63;;;14.55;73.50
51083;BME280;37131;42.694;23.350;2022-11-18T13:57:47;94034.53;;;14.71;73.46
51083;BME280;37131;42.694;23.350;2022-11-18T14:00:25;94035.16;;;14.87;72.44
51083;BME280;37131;42.694;23.350;2022-11-18T14:03:00;94024.38;;;14.89;72.08
51083;BME280;37131;42.694;23.350;2022-11-18T14:05:27;94016.56;;;14.84;72.51
51083;BME280;37131;42.694;23.350;2022-11-18T14:07:59;94018.06;;;14.90;72.32
51083;BME280;37131;42.694;23.350;2022-11-18T14:10:30;94008.34;;;14.90;71.66
51083;BME280;37131;42.694;23.350;2022-11-18T14:12:58;94010.19;;;14.90;71.44
51083;BME280;37131;42.694;23.350;2022-11-18T14:17:57;94004.03;;;15.00;71.03
51083;BME280;37131;42.694;23.350;2022-11-18T14:20:25;94016.16;;;14.71;73.34
51083;BME280;37131;42.694;23.350;2022-11-18T14:22:55;93989.63;;;14.25;75.43
51083;BME280;37131;42.694;23.350;2022-11-18T14:25:30;93984.59;;;13.69;76.92
51083;BME280;37131;42.694;23.350;2022-11-18T14:28:24;94001.19;;;13.89;77.41
51083;BME280;37131;42.694;23.350;2022-11-18T14:33:37;94006.09;;;14.01;75.85
51083;BME280;37131;42.694;23.350;2022-11-18T14:36:16;93988.47;;;13.77;77.02
51083;BME280;37131;42.694;23.350;2022-11-18T14:38:49;93971.28;;;13.66;76.38
51083;BME280;37131;42.694;23.350;2022-11-18T14:41:17;94009.44;;;14.07;76.11
51083;BME280;37131;42.694;23.350;2022-11-18T14:44:02;94012.72;;;14.23;75.47
51083;BME280;37131;42.694;23.350;2022-11-18T14:46:27;93998.31;;;13.56;79.22
51083;BME280;37131;42.694;23.350;2022-11-18T14:48:53;94016.31;;;13.68;77.18
51083;BME280;37131;42.694;23.350;2022-11-18T14:51:18;94018.91;;;13.73;77.44
51083;BME280;37131;42.694;23.350;2022-11-18T14:53:44;94004.81;;;13.64;76.70
51083;BME280;37131;42.694;23.350;2022-11-18T14:56:21;94013.22;;;13.95;75.27
51083;BME280;37131;42.694;23.350;2022-11-18T14:58:47;94011.06;;;14.02;74.82
51083;BME280;37131;42.694;23.350;2022-11-18T15:01:12;94040.44;;;13.99;75.87
51083;BME280;37131;42.694;23.350;2022-11-18T15:03:38;94033.19;;;14.20;74.35
51083;BME280;37131;42.694;23.350;2022-11-18T15:06:11;94046.59;;;14.14;75.29
51083;BME280;37131;42.694;23.350;2022-11-18T15:08:37;94051.72;;;13.95;72.32
51083;BME280;37131;42.694;23.350;2022-11-18T15:11:02;94074.06;;;14.21;68.44
51083;BME280;37131;42.694;23.350;2022-11-18T15:13:28;94056.31;;;14.43;66.47
51083;BME280;37131;42.694;23.350;2022-11-18T15:15:53;94050.69;;;14.84;62.86